createdAt,value
2023-10-26T00:00:39.586Z,78.82
2023-10-26T00:03:06.728Z,78.70
2023-10-26T00:05:33.809Z,78.98
2023-10-26T00:08:00.966Z,79.22
2023-10-26T00:10:28.021Z,78.90
2023-10-26T00:12:55.024Z,79.24
2023-10-26T00:15:22.204Z,78.99
2023-10-26T00:17:49.622Z,79.03
2023-10-26T00:20:16.664Z,79.13
2023-10-26T00:22:43.696Z,79.38
2023-10-26T00:25:10.719Z,79.33
2023-10-26T00:27:42.132Z,79.57
2023-10-26T00:30:12.029Z,79.55
2023-10-26T00:32:39.299Z,79.69
2023-10-26T00:35:06.910Z,79.93
2023-10-26T00:37:34.033Z,79.84
2023-10-26T00:40:01.058Z,79.85
2023-10-26T00:42:28.316Z,80.16
2023-10-26T00:44:58.243Z,80.13
2023-10-26T00:47:27.260Z,80.33
2023-10-26T00:49:55.792Z,80.50
2023-10-26T00:52:24.271Z,80.71
2023-10-26T00:54:52.763Z,80.62
2023-10-26T00:57:22.709Z,80.80
2023-10-26T00:59:51.579Z,80.97
2023-10-26T01:02:20.146Z,80.61
2023-10-26T01:04:47.580Z,80.95
2023-10-26T01:07:15.004Z,81.14
2023-10-26T01:09:42.295Z,81.11
2023-10-26T01:12:09.890Z,81.18
2023-10-26T01:14:38.047Z,81.12
2023-10-26T01:17:05.075Z,81.40
2023-10-26T01:19:43.260Z,81.38
2023-10-26T01:22:11.223Z,81.50
2023-10-26T01:24:39.049Z,81.47
2023-10-26T01:27:06.586Z,81.54
2023-10-26T01:29:34.633Z,81.72
2023-10-26T01:32:01.761Z,81.48
2023-10-26T01:34:29.063Z,81.73
2023-10-26T01:36:56.163Z,81.75
2023-10-26T01:39:23.411Z,81.68
2023-10-26T01:41:50.580Z,81.70
2023-10-26T01:44:17.626Z,81.63
2023-10-26T01:46:44.929Z,81.56
2023-10-26T01:49:12.024Z,81.77
2023-10-26T01:51:40.760Z,81.65
2023-10-26T01:54:09.165Z,81.93
2023-10-26T01:56:38.495Z,81.94
2023-10-26T01:59:06.163Z,82.02
2023-10-26T02:01:33.523Z,82.21
2023-10-26T02:04:00.522Z,82.12
2023-10-26T02:06:27.716Z,82.04
2023-10-26T02:08:54.883Z,81.99
2023-10-26T02:11:22.052Z,82.00
2023-10-26T02:13:49.159Z,82.17
2023-10-26T02:16:17.935Z,82.12
2023-10-26T02:18:46.094Z,81.99
2023-10-26T02:21:13.764Z,82.08
2023-10-26T02:23:42.336Z,82.06
2023-10-26T02:26:09.410Z,81.99
2023-10-26T02:28:36.506Z,82.09
2023-10-26T02:31:03.755Z,81.97
2023-10-26T02:33:30.902Z,81.78
2023-10-26T02:35:58.002Z,81.64
2023-10-26T02:38:25.060Z,81.79
2023-10-26T02:40:52.723Z,81.76
2023-10-26T02:43:20.578Z,81.66
2023-10-26T02:45:48.076Z,82.05
2023-10-26T02:48:16.139Z,81.53
2023-10-26T02:50:43.732Z,81.96
2023-10-26T02:53:10.703Z,81.95
2023-10-26T02:55:37.710Z,81.51
2023-10-26T02:58:04.693Z,81.68
2023-10-26T03:00:31.737Z,81.52
2023-10-26T03:02:59.044Z,81.61
2023-10-26T03:05:26.227Z,81.89
2023-10-26T03:07:53.612Z,82.22
2023-10-26T03:10:21.550Z,82.35
2023-10-26T03:12:50.069Z,82.32
2023-10-26T03:15:18.233Z,82.37
2023-10-26T03:17:45.779Z,82.51
2023-10-26T03:20:13.116Z,82.41
2023-10-26T03:22:40.077Z,82.55
2023-10-26T03:25:08.616Z,82.27
2023-10-26T03:27:35.972Z,82.36
2023-10-26T03:30:06.387Z,82.70
2023-10-26T03:32:33.382Z,82.65
2023-10-26T03:35:01.004Z,82.91
2023-10-26T03:37:28.798Z,83.13
2023-10-26T03:39:56.923Z,83.30
2023-10-26T03:42:23.941Z,83.22
2023-10-26T03:44:51.350Z,83.41
2023-10-26T03:47:20.091Z,83.08
2023-10-26T03:49:47.498Z,83.02
2023-10-26T03:52:15.377Z,82.79
2023-10-26T03:54:43.508Z,82.60
2023-10-26T03:57:10.615Z,82.85
2023-10-26T03:59:37.644Z,82.74
2023-10-26T04:02:04.885Z,82.83
2023-10-26T04:04:32.042Z,82.99
2023-10-26T04:06:58.991Z,82.95
2023-10-26T04:09:26.015Z,83.04
2023-10-26T04:11:53.209Z,83.36
2023-10-26T04:14:20.211Z,83.19
2023-10-26T04:16:51.059Z,83.06
2023-10-26T04:19:18.179Z,83.24
2023-10-26T04:21:45.617Z,83.32
2023-10-26T04:24:12.707Z,83.17
2023-10-26T04:26:39.708Z,83.32
2023-10-26T04:29:08.102Z,84.08
2023-10-26T04:31:35.750Z,84.36
2023-10-26T04:34:02.950Z,84.32
2023-10-26T04:36:30.451Z,84.17
2023-10-26T04:38:57.588Z,84.14
2023-10-26T04:41:24.646Z,84.37
2023-10-26T04:43:51.638Z,84.50
2023-10-26T04:46:18.809Z,84.30
2023-10-26T04:48:45.913Z,84.39
2023-10-26T04:51:13.116Z,84.31
2023-10-26T04:53:40.132Z,84.49
2023-10-26T04:56:07.441Z,84.49
2023-10-26T04:58:34.351Z,84.86
2023-10-26T05:01:01.385Z,84.93
2023-10-26T05:03:28.512Z,85.27
2023-10-26T05:05:55.557Z,85.49
2023-10-26T05:08:22.549Z,85.23
2023-10-26T05:10:49.548Z,85.21
2023-10-26T05:13:16.570Z,85.77
2023-10-26T05:15:46.711Z,85.52
2023-10-26T05:18:13.749Z,85.49
2023-10-26T05:20:41.163Z,85.41
2023-10-26T05:23:09.587Z,85.41
2023-10-26T05:25:37.732Z,85.34
2023-10-26T05:28:04.937Z,85.45
2023-10-26T05:30:32.099Z,85.51
2023-10-26T05:32:59.131Z,85.58
2023-10-26T05:35:26.186Z,85.61
2023-10-26T05:37:53.289Z,85.49
2023-10-26T05:40:20.398Z,85.78
2023-10-26T05:42:47.479Z,86.06
2023-10-26T05:45:14.591Z,85.96
2023-10-26T05:47:41.655Z,86.25
2023-10-26T05:50:09.200Z,86.32
2023-10-26T05:52:36.273Z,86.33
2023-10-26T05:55:04.102Z,86.47
2023-10-26T05:57:31.067Z,86.49
2023-10-26T05:59:58.255Z,86.63
2023-10-26T06:02:25.381Z,86.44
2023-10-26T06:04:52.430Z,86.30
2023-10-26T06:07:19.442Z,86.43
2023-10-26T06:09:46.356Z,86.65
2023-10-26T06:12:13.686Z,86.83
2023-10-26T06:14:40.719Z,86.85
2023-10-26T06:17:07.761Z,86.86
2023-10-26T06:19:35.329Z,86.89
2023-10-26T06:22:02.640Z,86.94
2023-10-26T06:24:29.948Z,87.18
2023-10-26T06:26:56.975Z,87.44
2023-10-26T06:29:23.887Z,87.36
2023-10-26T06:31:50.966Z,87.18
2023-10-26T06:34:17.998Z,87.31
2023-10-26T06:36:44.968Z,87.46
2023-10-26T06:39:11.951Z,87.33
2023-10-26T06:41:38.967Z,87.17
2023-10-26T06:44:06.069Z,87.30
2023-10-26T06:46:33.091Z,87.16
2023-10-26T06:49:01.520Z,87.23
2023-10-26T06:51:31.668Z,87.28
2023-10-26T06:53:58.619Z,87.24
2023-10-26T06:56:25.634Z,87.16
2023-10-26T06:58:52.572Z,87.30
2023-10-26T07:01:21.101Z,87.34
2023-10-26T07:03:50.565Z,87.43
2023-10-26T07:06:18.326Z,87.39
2023-10-26T07:08:45.492Z,87.41
2023-10-26T07:11:12.513Z,87.41
2023-10-26T07:13:39.963Z,87.31
2023-10-26T07:16:07.406Z,87.40
2023-10-26T07:18:35.079Z,87.41
2023-10-26T07:21:08.970Z,87.53
2023-10-26T07:23:36.398Z,87.87
2023-10-26T07:26:04.281Z,87.91
2023-10-26T07:28:31.461Z,88.10
2023-10-26T07:30:58.521Z,88.14
2023-10-26T07:33:26.045Z,88.01
2023-10-26T07:35:56.585Z,87.99
2023-10-26T07:38:35.115Z,88.00
2023-10-26T07:41:07.165Z,87.75
2023-10-26T07:43:36.059Z,87.70
2023-10-26T07:46:03.119Z,87.61
2023-10-26T07:48:32.246Z,87.59
2023-10-26T07:50:59.529Z,87.58
2023-10-26T07:53:29.571Z,87.30
2023-10-26T07:55:59.232Z,87.18
2023-10-26T07:58:31.371Z,86.24
2023-10-26T08:00:58.377Z,86.26
2023-10-26T08:03:25.614Z,86.20
2023-10-26T08:05:56.886Z,86.30
2023-10-26T08:08:24.107Z,84.60
2023-10-26T08:10:51.116Z,84.33
2023-10-26T08:13:18.424Z,84.03
2023-10-26T08:16:05.570Z,83.86
2023-10-26T08:18:32.904Z,82.71
2023-10-26T08:21:00.258Z,81.45
2023-10-26T08:23:31.043Z,79.42
2023-10-26T08:25:58.237Z,76.09
2023-10-26T08:28:25.354Z,74.18
2023-10-26T08:30:55.214Z,70.93
2023-10-26T08:33:22.281Z,70.07
2023-10-26T08:35:50.943Z,69.22
2023-10-26T08:38:18.414Z,68.93
2023-10-26T08:40:52.622Z,67.29
2023-10-26T08:43:20.543Z,63.28
2023-10-26T08:45:48.710Z,64.64
2023-10-26T08:48:17.635Z,64.33
2023-10-26T08:50:46.711Z,63.54
2023-10-26T08:53:14.636Z,63.20
2023-10-26T08:55:43.295Z,63.34
2023-10-26T08:58:10.621Z,59.64
2023-10-26T09:00:42.318Z,60.33
2023-10-26T09:03:09.647Z,61.21
2023-10-26T09:05:56.922Z,57.05
2023-10-26T09:08:24.807Z,59.70
2023-10-26T09:10:54.929Z,56.93
2023-10-26T09:13:29.809Z,54.59
2023-10-26T09:15:59.946Z,55.90
2023-10-26T09:18:28.438Z,57.98
2023-10-26T09:21:09.656Z,58.17
2023-10-26T09:23:38.600Z,52.02
2023-10-26T09:26:11.319Z,48.95
2023-10-26T09:28:54.961Z,49.35
2023-10-26T09:31:23.370Z,52.06
2023-10-26T09:33:51.203Z,49.70
2023-10-26T09:36:19.895Z,48.69
2023-10-26T09:38:49.075Z,49.18
2023-10-26T09:41:18.094Z,48.71
2023-10-26T09:43:45.133Z,51.17
2023-10-26T09:46:13.352Z,50.86
2023-10-26T09:48:42.355Z,52.65
2023-10-26T09:51:11.950Z,54.27
2023-10-26T09:53:42.460Z,54.92
2023-10-26T09:56:18.680Z,55.44
2023-10-26T09:58:46.219Z,54.73
2023-10-26T10:01:37.339Z,55.80
2023-10-26T10:04:05.856Z,54.04
2023-10-26T10:06:51.778Z,54.89
2023-10-26T10:09:26.696Z,55.80
2023-10-26T10:12:15.138Z,56.95
2023-10-26T10:14:48.178Z,56.89
2023-10-26T10:17:20.297Z,57.20
2023-10-26T10:19:48.809Z,57.60
2023-10-26T10:22:40.463Z,58.12
2023-10-26T10:25:11.803Z,58.32
2023-10-26T10:27:40.081Z,58.72
2023-10-26T10:30:10.392Z,59.12
2023-10-26T10:32:43.956Z,59.28
2023-10-26T10:35:12.721Z,59.60
2023-10-26T10:37:40.121Z,59.68
2023-10-26T10:40:18.019Z,59.79
2023-10-26T10:42:50.051Z,60.02
2023-10-26T10:45:18.203Z,59.99
2023-10-26T10:47:48.348Z,60.02
2023-10-26T10:50:19.298Z,60.09
2023-10-26T10:52:51.086Z,60.22
2023-10-26T10:55:27.659Z,60.31
2023-10-26T10:57:59.495Z,60.50
2023-10-26T11:00:46.906Z,60.49
2023-10-26T11:03:20.325Z,60.40
2023-10-26T11:05:47.613Z,60.45
2023-10-26T11:08:14.638Z,60.28
2023-10-26T11:10:48.644Z,60.35
2023-10-26T11:13:23.476Z,60.66
2023-10-26T11:15:50.592Z,60.65
2023-10-26T11:18:17.767Z,60.62
2023-10-26T11:20:48.993Z,60.55
2023-10-26T11:23:23.626Z,60.52
2023-10-26T11:25:50.632Z,60.46
2023-10-26T11:28:34.021Z,60.32
2023-10-26T11:31:01.453Z,60.51
2023-10-26T11:33:31.319Z,60.45
2023-10-26T11:35:59.087Z,60.43
2023-10-26T11:38:27.648Z,60.49
2023-10-26T11:40:55.138Z,60.55
2023-10-26T11:43:32.739Z,60.48
2023-10-26T11:46:04.754Z,60.59
2023-10-26T11:48:35.202Z,60.98
2023-10-26T11:51:07.906Z,61.00
2023-10-26T11:53:36.827Z,61.13
2023-10-26T11:56:04.037Z,61.34
2023-10-26T11:58:32.049Z,61.43
2023-10-26T12:00:59.012Z,61.57
2023-10-26T12:03:27.423Z,61.34
2023-10-26T12:05:56.028Z,61.55
2023-10-26T12:08:24.366Z,61.58
2023-10-26T12:10:51.346Z,61.60
2023-10-26T12:13:18.501Z,61.35
2023-10-26T12:15:45.468Z,61.67
2023-10-26T12:18:12.751Z,61.06
2023-10-26T12:20:39.760Z,61.04
2023-10-26T12:23:06.851Z,60.82
2023-10-26T12:25:33.854Z,60.86
2023-10-26T12:28:21.646Z,60.88
2023-10-26T12:30:51.287Z,61.18
2023-10-26T12:33:18.561Z,61.23
2023-10-26T12:35:47.701Z,61.50
2023-10-26T12:38:15.046Z,61.74
2023-10-26T12:40:42.120Z,61.84
2023-10-26T12:43:09.132Z,61.93
2023-10-26T12:45:37.419Z,62.15
2023-10-26T12:48:05.264Z,62.36
2023-10-26T12:50:32.378Z,62.19
2023-10-26T12:52:59.452Z,62.39
2023-10-26T12:55:26.514Z,62.32
2023-10-26T12:57:54.197Z,62.35
2023-10-26T13:00:22.389Z,62.40
2023-10-26T13:02:49.533Z,62.64
2023-10-26T13:05:16.484Z,62.65
2023-10-26T13:07:43.481Z,62.84
2023-10-26T13:10:10.636Z,63.03
2023-10-26T13:12:38.004Z,63.20
2023-10-26T13:15:06.054Z,63.31
2023-10-26T13:17:34.541Z,63.31
2023-10-26T13:20:01.698Z,63.64
2023-10-26T13:22:28.781Z,63.64
2023-10-26T13:24:55.872Z,63.89
2023-10-26T13:27:22.814Z,64.30
2023-10-26T13:29:50.440Z,64.41
2023-10-26T13:32:17.431Z,64.53
2023-10-26T13:34:44.640Z,64.52
2023-10-26T13:37:11.740Z,64.63
2023-10-26T13:39:38.823Z,64.74
2023-10-26T13:42:05.884Z,64.66
2023-10-26T13:44:32.901Z,64.70
2023-10-26T13:46:59.838Z,64.71
2023-10-26T13:49:26.840Z,64.75
2023-10-26T13:51:53.786Z,64.72
2023-10-26T13:54:20.922Z,64.75
2023-10-26T13:56:48.298Z,64.83
2023-10-26T13:59:15.380Z,64.87
2023-10-26T14:01:42.403Z,64.87
2023-10-26T14:04:09.574Z,64.80
2023-10-26T14:06:36.917Z,64.82
2023-10-26T14:09:04.864Z,64.94
2023-10-26T14:11:32.767Z,64.93
2023-10-26T14:14:00.131Z,64.96
2023-10-26T14:16:29.026Z,64.99
2023-10-26T14:18:58.396Z,65.00
2023-10-26T14:21:25.408Z,65.09
2023-10-26T14:23:52.397Z,65.03
2023-10-26T14:26:19.452Z,65.06
2023-10-26T14:28:48.930Z,65.26
2023-10-26T14:31:18.813Z,65.92
2023-10-26T14:33:45.898Z,65.19
2023-10-26T14:36:12.944Z,65.25
2023-10-26T14:38:39.912Z,65.26
2023-10-26T14:41:06.864Z,65.40
2023-10-26T14:43:33.890Z,65.39
2023-10-26T14:46:00.998Z,65.55
2023-10-26T14:48:27.938Z,65.69
2023-10-26T14:50:59.982Z,65.90
2023-10-26T14:53:27.148Z,66.13
2023-10-26T14:55:54.448Z,65.86
2023-10-26T14:58:23.040Z,66.21
2023-10-26T15:00:51.581Z,66.69
2023-10-26T15:03:18.597Z,66.62
2023-10-26T15:05:46.174Z,66.90
2023-10-26T15:08:13.316Z,67.05
2023-10-26T15:10:51.370Z,67.11
2023-10-26T15:13:20.027Z,67.35
2023-10-26T15:15:48.655Z,67.58
2023-10-26T15:18:15.669Z,67.73
2023-10-26T15:20:42.681Z,67.54
2023-10-26T15:23:10.540Z,67.90
2023-10-26T15:25:37.775Z,68.03
2023-10-26T15:28:04.929Z,68.29
2023-10-26T15:30:32.061Z,68.16
2023-10-26T15:32:59.201Z,68.20
2023-10-26T15:35:27.961Z,68.26
2023-10-26T15:37:55.183Z,68.36
2023-10-26T15:40:22.280Z,68.40
2023-10-26T15:42:49.300Z,68.56
2023-10-26T15:45:16.472Z,68.57
2023-10-26T15:47:44.862Z,68.98
2023-10-26T15:50:12.285Z,68.60
2023-10-26T15:52:39.257Z,68.76
2023-10-26T15:55:06.913Z,68.93
2023-10-26T15:57:34.310Z,68.97
2023-10-26T16:00:01.548Z,68.76
2023-10-26T16:02:28.652Z,68.80
2023-10-26T16:04:55.689Z,68.95
2023-10-26T16:07:22.611Z,68.88
2023-10-26T16:09:49.631Z,69.01
2023-10-26T16:12:17.082Z,69.13
2023-10-26T16:14:44.419Z,68.71
2023-10-26T16:17:11.599Z,68.76
2023-10-26T16:19:38.535Z,69.21
2023-10-26T16:22:05.971Z,69.33
2023-10-26T16:24:33.321Z,69.36
2023-10-26T16:27:00.377Z,69.48
2023-10-26T16:29:27.316Z,69.68
2023-10-26T16:31:54.307Z,69.80
2023-10-26T16:34:21.255Z,69.69
2023-10-26T16:36:48.281Z,69.64
2023-10-26T16:39:15.384Z,69.79
2023-10-26T16:41:42.420Z,69.60
2023-10-26T16:44:09.377Z,69.83
2023-10-26T16:46:36.489Z,69.76
2023-10-26T16:49:03.511Z,69.75
2023-10-26T16:51:30.523Z,69.82
2023-10-26T16:53:57.875Z,69.80
2023-10-26T16:56:27.710Z,69.93
2023-10-26T16:58:55.649Z,69.97
2023-10-26T17:01:24.145Z,70.22
2023-10-26T17:03:51.131Z,70.28
2023-10-26T17:06:18.208Z,70.16
2023-10-26T17:08:45.127Z,70.24
2023-10-26T17:11:12.212Z,70.29
2023-10-26T17:13:39.149Z,70.47
2023-10-26T17:16:06.715Z,70.45
2023-10-26T17:18:33.707Z,70.57
2023-10-26T17:21:02.001Z,70.31
2023-10-26T17:23:29.135Z,70.34
2023-10-26T17:25:56.342Z,70.56
2023-10-26T17:28:23.299Z,70.63
2023-10-26T17:30:50.584Z,70.84
2023-10-26T17:33:18.850Z,70.92
2023-10-26T17:35:49.265Z,70.83
2023-10-26T17:38:16.565Z,70.82
2023-10-26T17:40:46.269Z,70.99
2023-10-26T17:43:13.934Z,70.94
2023-10-26T17:45:41.196Z,70.85
2023-10-26T17:48:09.581Z,70.70
2023-10-26T17:50:43.331Z,70.93
2023-10-26T17:53:10.253Z,71.26
2023-10-26T17:55:37.582Z,71.20
2023-10-26T17:58:04.590Z,70.85
2023-10-26T18:00:31.617Z,70.65
2023-10-26T18:02:58.567Z,70.88
2023-10-26T18:05:25.577Z,70.86
2023-10-26T18:07:53.829Z,70.40
2023-10-26T18:10:21.594Z,70.80
2023-10-26T18:12:48.893Z,71.16
2023-10-26T18:15:15.941Z,71.42
2023-10-26T18:17:42.994Z,70.98
2023-10-26T18:20:10.611Z,70.83
2023-10-26T18:22:37.565Z,70.98
2023-10-26T18:25:05.060Z,70.89
2023-10-26T18:27:32.595Z,71.38
2023-10-26T18:29:59.663Z,72.06
2023-10-26T18:32:26.808Z,71.61
2023-10-26T18:34:53.744Z,71.62
2023-10-26T18:37:22.322Z,71.32
2023-10-26T18:39:54.597Z,71.33
2023-10-26T18:42:22.518Z,71.35
2023-10-26T18:44:50.158Z,71.47
2023-10-26T18:47:17.308Z,71.63
2023-10-26T18:49:44.567Z,72.01
2023-10-26T18:52:11.654Z,71.79
2023-10-26T18:54:38.788Z,71.99
2023-10-26T18:57:05.968Z,72.25
2023-10-26T18:59:33.083Z,72.44
2023-10-26T19:02:01.548Z,72.32
2023-10-26T19:04:28.736Z,72.44
2023-10-26T19:06:55.854Z,72.39
2023-10-26T19:09:22.822Z,72.78
2023-10-26T19:11:49.835Z,73.20
2023-10-26T19:14:16.769Z,73.15
2023-10-26T19:16:44.065Z,72.65
2023-10-26T19:19:11.288Z,73.03
2023-10-26T19:21:38.329Z,73.59
2023-10-26T19:24:06.067Z,73.79
2023-10-26T19:26:33.096Z,73.71
2023-10-26T19:29:00.065Z,73.77
2023-10-26T19:31:27.039Z,73.25
2023-10-26T19:33:54.039Z,73.77
2023-10-26T19:36:21.124Z,73.37
2023-10-26T19:38:48.158Z,73.20
2023-10-26T19:41:18.536Z,73.97
2023-10-26T19:43:45.585Z,73.75
2023-10-26T19:46:12.751Z,73.58
2023-10-26T19:48:40.081Z,73.52
2023-10-26T19:51:07.236Z,73.34
2023-10-26T19:53:37.063Z,73.40
2023-10-26T19:56:04.682Z,73.34
2023-10-26T19:58:31.854Z,74.14
2023-10-26T20:00:58.857Z,74.40
2023-10-26T20:03:25.948Z,74.70
2023-10-26T20:05:52.927Z,74.46
2023-10-26T20:08:19.922Z,74.36
2023-10-26T20:10:47.512Z,74.01
2023-10-26T20:13:14.670Z,73.61
2023-10-26T20:15:41.742Z,74.13
2023-10-26T20:18:11.987Z,74.46
2023-10-26T20:20:39.102Z,74.46
2023-10-26T20:23:06.465Z,74.66
2023-10-26T20:25:33.809Z,74.81
2023-10-26T20:28:01.425Z,74.65
2023-10-26T20:30:28.755Z,74.56
2023-10-26T20:32:57.758Z,74.19
2023-10-26T20:35:24.902Z,74.20
2023-10-26T20:37:52.006Z,74.28
2023-10-26T20:40:19.155Z,74.32
2023-10-26T20:42:46.760Z,74.45
2023-10-26T20:45:14.254Z,74.63
2023-10-26T20:47:41.387Z,74.62
2023-10-26T20:50:08.822Z,74.50
2023-10-26T20:52:35.797Z,74.46
2023-10-26T20:55:03.045Z,74.53
2023-10-26T20:57:30.009Z,74.60
2023-10-26T20:59:57.002Z,74.73
2023-10-26T21:02:24.033Z,74.60
2023-10-26T21:04:51.520Z,74.78
2023-10-26T21:07:18.548Z,74.72
2023-10-26T21:09:45.808Z,74.73
2023-10-26T21:12:13.084Z,74.72
2023-10-26T21:14:40.122Z,74.64
2023-10-26T21:17:07.073Z,74.74
2023-10-26T21:19:34.018Z,74.61
2023-10-26T21:22:01.973Z,74.53
2023-10-26T21:24:28.931Z,74.71
2023-10-26T21:26:55.903Z,74.70
2023-10-26T21:29:23.049Z,74.75
2023-10-26T21:31:50.024Z,74.75
2023-10-26T21:34:17.132Z,74.80
2023-10-26T21:36:44.455Z,74.75
2023-10-26T21:39:11.936Z,74.92
2023-10-26T21:41:40.093Z,74.80
2023-10-26T21:44:07.450Z,74.91
2023-10-26T21:46:34.442Z,74.89
2023-10-26T21:49:01.838Z,74.95
2023-10-26T21:51:28.846Z,75.04
2023-10-26T21:53:55.828Z,75.02
2023-10-26T21:56:22.769Z,75.14
2023-10-26T21:58:51.388Z,75.03
2023-10-26T22:01:19.504Z,75.17
2023-10-26T22:03:56.676Z,75.18
2023-10-26T22:06:33.748Z,75.36
2023-10-26T22:09:00.840Z,75.21
2023-10-26T22:11:28.238Z,75.36
2023-10-26T22:13:55.287Z,75.28
2023-10-26T22:16:22.736Z,75.29
2023-10-26T22:18:49.873Z,75.29
2023-10-26T22:21:17.036Z,75.38
2023-10-26T22:23:44.045Z,75.34
2023-10-26T22:26:11.005Z,75.44
2023-10-26T22:28:37.913Z,75.50
2023-10-26T22:31:09.694Z,75.40
2023-10-26T22:33:38.478Z,75.38
2023-10-26T22:36:10.404Z,75.33
2023-10-26T22:38:37.471Z,75.44
2023-10-26T22:41:09.310Z,75.34
2023-10-26T22:43:36.380Z,75.47
2023-10-26T22:46:03.607Z,75.50
2023-10-26T22:48:31.312Z,75.40
2023-10-26T22:51:01.519Z,75.39
2023-10-26T22:53:28.484Z,75.37
2023-10-26T22:55:55.505Z,75.50
2023-10-26T22:58:22.557Z,75.66
2023-10-26T23:00:49.740Z,75.52
2023-10-26T23:03:16.968Z,75.33
2023-10-26T23:05:44.456Z,75.33
2023-10-26T23:08:12.273Z,75.43
2023-10-26T23:10:39.283Z,75.52
2023-10-26T23:13:06.389Z,75.48
2023-10-26T23:15:33.445Z,75.36
2023-10-26T23:18:00.585Z,75.11
2023-10-26T23:20:27.743Z,75.00
2023-10-26T23:22:59.084Z,75.06
2023-10-26T23:25:26.215Z,74.77
2023-10-26T23:27:53.242Z,74.92
2023-10-26T23:30:20.573Z,74.94
2023-10-26T23:32:47.905Z,74.75
2023-10-26T23:35:15.168Z,74.99
2023-10-26T23:37:42.188Z,75.66
2023-10-26T23:40:11.171Z,75.43
2023-10-26T23:42:38.238Z,75.27
2023-10-26T23:45:05.672Z,75.35
2023-10-26T23:47:32.683Z,75.48
2023-10-26T23:49:59.829Z,75.60
2023-10-26T23:52:26.871Z,75.94
2023-10-26T23:54:54.425Z,76.29
2023-10-26T23:57:21.586Z,76.48
2023-10-26T23:59:48.650Z,76.78
